sensor_id;sensor_type;location;lat;lon;timestamp;P1;durP1;ratioP1;P2;durP2;ratioP2
44197;SDS011;30157;55.512;37.764;2023-07-29T00:00:41;4.10;;;3.00;;
44197;SDS011;30157;55.512;37.764;2023-07-29T00:03:08;3.67;;;3.17;;
44197;SDS011;30157;55.512;37.764;2023-07-29T00:05:34;3.88;;;3.40;;
44197;SDS011;30157;55.512;37.764;2023-07-29T00:08:00;4.22;;;3.05;;
44197;SDS011;30157;55.512;37.764;2023-07-29T00:10:25;4.35;;;3.42;;
44197;SDS011;30157;55.512;37.764;2023-07-29T00:12:52;4.47;;;3.75;;
44197;SDS011;30157;55.512;37.764;2023-07-29T00:15:18;3.58;;;3.22;;
44197;SDS011;30157;55.512;37.764;2023-07-29T00:17:44;6.72;;;3.63;;
44197;SDS011;30157;55.512;37.764;2023-07-29T00:20:09;7.00;;;3.70;;
44197;SDS011;30157;55.512;37.764;2023-07-29T00:22:35;5.03;;;3.38;;
44197;SDS011;30157;55.512;37.764;2023-07-29T00:25:01;4.85;;;3.60;;
44197;SDS011;30157;55.512;37.764;2023-07-29T00:27:29;5.03;;;4.00;;
44197;SDS011;30157;55.512;37.764;2023-07-29T00:29:54;3.65;;;3.35;;
44197;SDS011;30157;55.512;37.764;2023-07-29T00:32:20;4.15;;;3.20;;
44197;SDS011;30157;55.512;37.764;2023-07-29T00:34:46;3.50;;;3.20;;
44197;SDS011;30157;55.512;37.764;2023-07-29T00:37:12;3.75;;;3.20;;
44197;SDS011;30157;55.512;37.764;2023-07-29T00:39:37;4.32;;;3.22;;
44197;SDS011;30157;55.512;37.764;2023-07-29T00:42:03;4.28;;;3.80;;
44197;SDS011;30157;55.512;37.764;2023-07-29T00:44:29;4.10;;;3.47;;
44197;SDS011;30157;55.512;37.764;2023-07-29T00:47:03;5.15;;;4.22;;
44197;SDS011;30157;55.512;37.764;2023-07-29T00:49:31;4.40;;;3.80;;
44197;SDS011;30157;55.512;37.764;2023-07-29T00:51:57;4.93;;;3.30;;
44197;SDS011;30157;55.512;37.764;2023-07-29T00:54:24;5.57;;;3.58;;
44197;SDS011;30157;55.512;37.764;2023-07-29T00:56:50;4.13;;;3.70;;
44197;SDS011;30157;55.512;37.764;2023-07-29T00:59:16;4.35;;;3.92;;
44197;SDS011;30157;55.512;37.764;2023-07-29T01:01:42;5.32;;;3.97;;
44197;SDS011;30157;55.512;37.764;2023-07-29T01:04:08;4.03;;;3.50;;
44197;SDS011;30157;55.512;37.764;2023-07-29T01:06:50;4.53;;;3.50;;
44197;SDS011;30157;55.512;37.764;2023-07-29T01:09:33;4.53;;;3.55;;
44197;SDS011;30157;55.512;37.764;2023-07-29T01:17:24;6.32;;;3.80;;
44197;SDS011;30157;55.512;37.764;2023-07-29T01:20:01;4.37;;;3.67;;
44197;SDS011;30157;55.512;37.764;2023-07-29T01:22:33;4.25;;;3.38;;
44197;SDS011;30157;55.512;37.764;2023-07-29T01:25:01;4.20;;;3.38;;
44197;SDS011;30157;55.512;37.764;2023-07-29T01:27:29;6.18;;;3.53;;
44197;SDS011;30157;55.512;37.764;2023-07-29T01:29:56;4.97;;;3.50;;
44197;SDS011;30157;55.512;37.764;2023-07-29T01:35:23;4.13;;;3.65;;
44197;SDS011;30157;55.512;37.764;2023-07-29T01:37:54;5.53;;;3.60;;
44197;SDS011;30157;55.512;37.764;2023-07-29T01:40:26;4.13;;;3.70;;
44197;SDS011;30157;55.512;37.764;2023-07-29T01:42:53;4.97;;;3.50;;
44197;SDS011;30157;55.512;37.764;2023-07-29T01:45:22;3.45;;;3.15;;
44197;SDS011;30157;55.512;37.764;2023-07-29T01:47:50;5.63;;;3.60;;
44197;SDS011;30157;55.512;37.764;2023-07-29T01:50:15;4.72;;;3.40;;
44197;SDS011;30157;55.512;37.764;2023-07-29T01:52:41;3.95;;;3.40;;
44197;SDS011;30157;55.512;37.764;2023-07-29T01:55:07;4.47;;;3.45;;
44197;SDS011;30157;55.512;37.764;2023-07-29T01:57:33;4.30;;;2.90;;
44197;SDS011;30157;55.512;37.764;2023-07-29T01:59:58;4.30;;;3.53;;
44197;SDS011;30157;55.512;37.764;2023-07-29T02:02:24;4.50;;;3.22;;
44197;SDS011;30157;55.512;37.764;2023-07-29T02:04:50;5.15;;;3.00;;
44197;SDS011;30157;55.512;37.764;2023-07-29T02:07:20;3.25;;;2.70;;
44197;SDS011;30157;55.512;37.764;2023-07-29T02:09:46;4.53;;;3.00;;
44197;SDS011;30157;55.512;37.764;2023-07-29T02:12:12;5.13;;;3.25;;
44197;SDS011;30157;55.512;37.764;2023-07-29T02:14:38;4.85;;;3.58;;
44197;SDS011;30157;55.512;37.764;2023-07-29T02:17:04;5.10;;;3.47;;
44197;SDS011;30157;55.512;37.764;2023-07-29T02:19:49;5.13;;;3.15;;
44197;SDS011;30157;55.512;37.764;2023-07-29T02:22:16;5.43;;;3.45;;
44197;SDS011;30157;55.512;37.764;2023-07-29T02:24:43;4.50;;;3.25;;
44197;SDS011;30157;55.512;37.764;2023-07-29T02:27:10;4.45;;;3.55;;
44197;SDS011;30157;55.512;37.764;2023-07-29T02:29:37;5.82;;;3.92;;
44197;SDS011;30157;55.512;37.764;2023-07-29T02:32:03;8.20;;;3.60;;
44197;SDS011;30157;55.512;37.764;2023-07-29T02:34:29;5.85;;;3.70;;
44197;SDS011;30157;55.512;37.764;2023-07-29T02:36:55;5.05;;;4.00;;
44197;SDS011;30157;55.512;37.764;2023-07-29T02:39:21;7.07;;;4.15;;
44197;SDS011;30157;55.512;37.764;2023-07-29T02:41:49;7.28;;;5.00;;
44197;SDS011;30157;55.512;37.764;2023-07-29T02:44:15;6.88;;;4.65;;
44197;SDS011;30157;55.512;37.764;2023-07-29T02:46:42;9.55;;;4.20;;
44197;SDS011;30157;55.512;37.764;2023-07-29T02:49:07;5.05;;;3.25;;
44197;SDS011;30157;55.512;37.764;2023-07-29T02:51:34;5.97;;;4.00;;
44197;SDS011;30157;55.512;37.764;2023-07-29T02:54:01;6.53;;;3.67;;
44197;SDS011;30157;55.512;37.764;2023-07-29T02:56:27;5.13;;;4.05;;
44197;SDS011;30157;55.512;37.764;2023-07-29T02:58:52;5.15;;;4.07;;
44197;SDS011;30157;55.512;37.764;2023-07-29T03:01:18;5.18;;;3.97;;
44197;SDS011;30157;55.512;37.764;2023-07-29T03:03:44;4.32;;;3.92;;
44197;SDS011;30157;55.512;37.764;2023-07-29T03:06:12;6.13;;;4.00;;
44197;SDS011;30157;55.512;37.764;2023-07-29T03:08:39;5.32;;;3.85;;
44197;SDS011;30157;55.512;37.764;2023-07-29T03:11:15;5.05;;;3.95;;
44197;SDS011;30157;55.512;37.764;2023-07-29T03:13:41;4.22;;;3.38;;
44197;SDS011;30157;55.512;37.764;2023-07-29T03:16:09;5.10;;;4.00;;
44197;SDS011;30157;55.512;37.764;2023-07-29T03:18:38;4.53;;;3.67;;
44197;SDS011;30157;55.512;37.764;2023-07-29T03:21:04;4.78;;;3.70;;
44197;SDS011;30157;55.512;37.764;2023-07-29T03:23:31;5.45;;;3.88;;
44197;SDS011;30157;55.512;37.764;2023-07-29T03:25:58;5.28;;;3.75;;
44197;SDS011;30157;55.512;37.764;2023-07-29T03:28:26;4.32;;;3.53;;
44197;SDS011;30157;55.512;37.764;2023-07-29T03:30:54;5.15;;;3.78;;
44197;SDS011;30157;55.512;37.764;2023-07-29T03:33:23;5.47;;;3.38;;
44197;SDS011;30157;55.512;37.764;2023-07-29T03:35:50;4.28;;;3.42;;
44197;SDS011;30157;55.512;37.764;2023-07-29T03:38:16;5.70;;;3.50;;
44197;SDS011;30157;55.512;37.764;2023-07-29T03:40:42;8.05;;;4.28;;
44197;SDS011;30157;55.512;37.764;2023-07-29T03:43:08;4.70;;;3.10;;
44197;SDS011;30157;55.512;37.764;2023-07-29T03:45:34;4.70;;;3.35;;
44197;SDS011;30157;55.512;37.764;2023-07-29T03:48:01;4.47;;;3.58;;
44197;SDS011;30157;55.512;37.764;2023-07-29T03:50:28;4.68;;;3.50;;
44197;SDS011;30157;55.512;37.764;2023-07-29T03:52:55;5.47;;;3.60;;
44197;SDS011;30157;55.512;37.764;2023-07-29T03:55:21;5.50;;;3.70;;
44197;SDS011;30157;55.512;37.764;2023-07-29T03:57:47;4.32;;;3.45;;
44197;SDS011;30157;55.512;37.764;2023-07-29T04:00:13;5.15;;;3.70;;
44197;SDS011;30157;55.512;37.764;2023-07-29T04:02:42;4.32;;;3.50;;
44197;SDS011;30157;55.512;37.764;2023-07-29T04:05:09;5.68;;;3.70;;
44197;SDS011;30157;55.512;37.764;2023-07-29T04:07:36;6.80;;;3.20;;
44197;SDS011;30157;55.512;37.764;2023-07-29T04:10:02;5.72;;;3.70;;
44197;SDS011;30157;55.512;37.764;2023-07-29T04:12:30;6.28;;;3.85;;
44197;SDS011;30157;55.512;37.764;2023-07-29T04:14:56;4.13;;;3.35;;
44197;SDS011;30157;55.512;37.764;2023-07-29T04:17:22;5.85;;;3.55;;
44197;SDS011;30157;55.512;37.764;2023-07-29T04:19:48;5.18;;;3.20;;
44197;SDS011;30157;55.512;37.764;2023-07-29T04:22:15;5.90;;;3.53;;
44197;SDS011;30157;55.512;37.764;2023-07-29T04:24:41;4.60;;;3.03;;
44197;SDS011;30157;55.512;37.764;2023-07-29T04:27:07;3.92;;;3.00;;
44197;SDS011;30157;55.512;37.764;2023-07-29T04:29:33;6.38;;;3.03;;
44197;SDS011;30157;55.512;37.764;2023-07-29T04:32:01;4.82;;;3.30;;
44197;SDS011;30157;55.512;37.764;2023-07-29T04:34:28;4.13;;;3.10;;
44197;SDS011;30157;55.512;37.764;2023-07-29T04:36:53;4.10;;;3.03;;
44197;SDS011;30157;55.512;37.764;2023-07-29T04:39:19;3.50;;;2.60;;
44197;SDS011;30157;55.512;37.764;2023-07-29T04:41:45;3.70;;;2.85;;
44197;SDS011;30157;55.512;37.764;2023-07-29T04:44:11;4.28;;;2.60;;
44197;SDS011;30157;55.512;37.764;2023-07-29T04:46:37;4.03;;;2.90;;
44197;SDS011;30157;55.512;37.764;2023-07-29T04:49:04;3.60;;;2.80;;
44197;SDS011;30157;55.512;37.764;2023-07-29T04:51:30;4.05;;;2.95;;
44197;SDS011;30157;55.512;37.764;2023-07-29T04:53:57;3.33;;;2.40;;
44197;SDS011;30157;55.512;37.764;2023-07-29T04:56:23;3.53;;;2.97;;
44197;SDS011;30157;55.512;37.764;2023-07-29T04:58:49;5.03;;;2.67;;
44197;SDS011;30157;55.512;37.764;2023-07-29T05:01:15;4.35;;;2.90;;
44197;SDS011;30157;55.512;37.764;2023-07-29T05:03:41;2.97;;;2.67;;
44197;SDS011;30157;55.512;37.764;2023-07-29T05:06:07;5.30;;;2.80;;
44197;SDS011;30157;55.512;37.764;2023-07-29T05:08:33;4.82;;;2.60;;
44197;SDS011;30157;55.512;37.764;2023-07-29T05:10:59;3.20;;;2.80;;
44197;SDS011;30157;55.512;37.764;2023-07-29T05:13:25;4.15;;;2.72;;
44197;SDS011;30157;55.512;37.764;2023-07-29T05:15:51;3.28;;;2.70;;
44197;SDS011;30157;55.512;37.764;2023-07-29T05:18:18;4.50;;;3.00;;
44197;SDS011;30157;55.512;37.764;2023-07-29T05:20:44;4.10;;;3.00;;
44197;SDS011;30157;55.512;37.764;2023-07-29T05:23:09;6.18;;;3.35;;
44197;SDS011;30157;55.512;37.764;2023-07-29T05:25:36;4.22;;;2.97;;
44197;SDS011;30157;55.512;37.764;2023-07-29T05:28:02;3.60;;;2.70;;
44197;SDS011;30157;55.512;37.764;2023-07-29T05:30:28;4.80;;;3.35;;
44197;SDS011;30157;55.512;37.764;2023-07-29T05:32:56;5.57;;;3.42;;
44197;SDS011;30157;55.512;37.764;2023-07-29T05:35:24;5.55;;;3.42;;
44197;SDS011;30157;55.512;37.764;2023-07-29T05:37:50;5.53;;;3.83;;
44197;SDS011;30157;55.512;37.764;2023-07-29T05:40:16;5.72;;;3.17;;
44197;SDS011;30157;55.512;37.764;2023-07-29T05:42:42;3.13;;;2.80;;
44197;SDS011;30157;55.512;37.764;2023-07-29T05:45:09;3.80;;;3.05;;
44197;SDS011;30157;55.512;37.764;2023-07-29T05:47:36;4.00;;;3.35;;
44197;SDS011;30157;55.512;37.764;2023-07-29T05:50:02;3.88;;;3.38;;
44197;SDS011;30157;55.512;37.764;2023-07-29T05:52:31;4.03;;;3.00;;
44197;SDS011;30157;55.512;37.764;2023-07-29T05:54:57;4.57;;;2.92;;
44197;SDS011;30157;55.512;37.764;2023-07-29T05:57:23;3.88;;;3.45;;
44197;SDS011;30157;55.512;37.764;2023-07-29T05:59:49;4.40;;;3.33;;
44197;SDS011;30157;55.512;37.764;2023-07-29T06:02:15;3.63;;;3.33;;
44197;SDS011;30157;55.512;37.764;2023-07-29T06:04:41;7.90;;;4.20;;
44197;SDS011;30157;55.512;37.764;2023-07-29T06:07:07;4.80;;;3.47;;
44197;SDS011;30157;55.512;37.764;2023-07-29T06:09:34;4.15;;;3.13;;
44197;SDS011;30157;55.512;37.764;2023-07-29T06:11:59;3.78;;;3.20;;
44197;SDS011;30157;55.512;37.764;2023-07-29T06:14:26;3.92;;;3.53;;
44197;SDS011;30157;55.512;37.764;2023-07-29T06:16:51;5.40;;;3.70;;
44197;SDS011;30157;55.512;37.764;2023-07-29T06:19:18;4.80;;;3.20;;
44197;SDS011;30157;55.512;37.764;2023-07-29T06:21:45;3.72;;;3.40;;
44197;SDS011;30157;55.512;37.764;2023-07-29T06:24:12;3.70;;;3.13;;
44197;SDS011;30157;55.512;37.764;2023-07-29T06:26:39;4.25;;;3.55;;
44197;SDS011;30157;55.512;37.764;2023-07-29T06:29:04;4.60;;;3.17;;
44197;SDS011;30157;55.512;37.764;2023-07-29T06:31:30;4.57;;;3.35;;
44197;SDS011;30157;55.512;37.764;2023-07-29T06:33:58;5.40;;;3.65;;
44197;SDS011;30157;55.512;37.764;2023-07-29T06:36:24;4.95;;;3.30;;
44197;SDS011;30157;55.512;37.764;2023-07-29T06:38:50;4.88;;;3.30;;
44197;SDS011;30157;55.512;37.764;2023-07-29T06:41:16;3.63;;;3.08;;
44197;SDS011;30157;55.512;37.764;2023-07-29T06:43:42;3.67;;;2.92;;
44197;SDS011;30157;55.512;37.764;2023-07-29T06:46:08;4.65;;;3.25;;
44197;SDS011;30157;55.512;37.764;2023-07-29T06:48:34;5.72;;;3.78;;
44197;SDS011;30157;55.512;37.764;2023-07-29T06:50:59;10.60;;;5.93;;
44197;SDS011;30157;55.512;37.764;2023-07-29T06:53:26;13.27;;;7.00;;
44197;SDS011;30157;55.512;37.764;2023-07-29T06:55:53;14.40;;;8.15;;
44197;SDS011;30157;55.512;37.764;2023-07-29T06:58:18;12.40;;;7.63;;
44197;SDS011;30157;55.512;37.764;2023-07-29T07:00:44;10.77;;;7.57;;
44197;SDS011;30157;55.512;37.764;2023-07-29T07:03:10;9.48;;;6.93;;
44197;SDS011;30157;55.512;37.764;2023-07-29T07:05:36;7.45;;;5.68;;
44197;SDS011;30157;55.512;37.764;2023-07-29T07:08:02;7.50;;;5.25;;
44197;SDS011;30157;55.512;37.764;2023-07-29T07:10:28;5.43;;;4.45;;
44197;SDS011;30157;55.512;37.764;2023-07-29T07:12:54;8.40;;;6.25;;
44197;SDS011;30157;55.512;37.764;2023-07-29T07:15:20;6.45;;;4.70;;
44197;SDS011;30157;55.512;37.764;2023-07-29T07:17:45;5.82;;;5.05;;
44197;SDS011;30157;55.512;37.764;2023-07-29T07:20:11;6.18;;;4.40;;
44197;SDS011;30157;55.512;37.764;2023-07-29T07:22:37;5.68;;;4.22;;
44197;SDS011;30157;55.512;37.764;2023-07-29T07:25:03;5.32;;;3.90;;
44197;SDS011;30157;55.512;37.764;2023-07-29T07:27:29;4.13;;;3.72;;
44197;SDS011;30157;55.512;37.764;2023-07-29T07:29:55;3.90;;;3.50;;
44197;SDS011;30157;55.512;37.764;2023-07-29T07:32:21;4.65;;;3.78;;
44197;SDS011;30157;55.512;37.764;2023-07-29T07:34:46;4.18;;;3.22;;
44197;SDS011;30157;55.512;37.764;2023-07-29T07:37:12;4.18;;;3.55;;
44197;SDS011;30157;55.512;37.764;2023-07-29T07:39:38;3.55;;;3.22;;
44197;SDS011;30157;55.512;37.764;2023-07-29T07:42:04;3.42;;;2.80;;
44197;SDS011;30157;55.512;37.764;2023-07-29T07:44:30;3.90;;;3.10;;
44197;SDS011;30157;55.512;37.764;2023-07-29T07:46:56;3.53;;;3.20;;
44197;SDS011;30157;55.512;37.764;2023-07-29T07:49:22;3.67;;;2.97;;
44197;SDS011;30157;55.512;37.764;2023-07-29T07:51:48;3.60;;;2.90;;
44197;SDS011;30157;55.512;37.764;2023-07-29T07:54:13;5.38;;;3.20;;
44197;SDS011;30157;55.512;37.764;2023-07-29T07:56:39;4.43;;;3.05;;
44197;SDS011;30157;55.512;37.764;2023-07-29T07:59:05;4.25;;;3.85;;
44197;SDS011;30157;55.512;37.764;2023-07-29T08:01:37;5.40;;;3.25;;
44197;SDS011;30157;55.512;37.764;2023-07-29T08:04:04;4.90;;;3.20;;
44197;SDS011;30157;55.512;37.764;2023-07-29T08:06:30;5.18;;;3.30;;
44197;SDS011;30157;55.512;37.764;2023-07-29T08:08:57;4.57;;;3.42;;
44197;SDS011;30157;55.512;37.764;2023-07-29T08:11:23;4.05;;;3.28;;
44197;SDS011;30157;55.512;37.764;2023-07-29T08:13:48;4.25;;;3.20;;
44197;SDS011;30157;55.512;37.764;2023-07-29T08:16:14;5.18;;;3.60;;
44197;SDS011;30157;55.512;37.764;2023-07-29T08:18:40;5.03;;;4.05;;
44197;SDS011;30157;55.512;37.764;2023-07-29T08:21:06;4.78;;;3.75;;
44197;SDS011;30157;55.512;37.764;2023-07-29T08:23:33;5.55;;;3.83;;
44197;SDS011;30157;55.512;37.764;2023-07-29T08:26:01;6.70;;;3.63;;
44197;SDS011;30157;55.512;37.764;2023-07-29T08:28:30;4.97;;;3.42;;
44197;SDS011;30157;55.512;37.764;2023-07-29T08:31:05;5.63;;;4.68;;
44197;SDS011;30157;55.512;37.764;2023-07-29T08:33:32;5.45;;;4.20;;
44197;SDS011;30157;55.512;37.764;2023-07-29T08:35:59;6.28;;;5.13;;
44197;SDS011;30157;55.512;37.764;2023-07-29T08:38:25;7.47;;;4.68;;
44197;SDS011;30157;55.512;37.764;2023-07-29T08:43:32;6.70;;;4.30;;
44197;SDS011;30157;55.512;37.764;2023-07-29T08:45:58;6.53;;;4.57;;
44197;SDS011;30157;55.512;37.764;2023-07-29T08:48:58;6.65;;;4.57;;
44197;SDS011;30157;55.512;37.764;2023-07-29T08:51:17;6.05;;;4.10;;
44197;SDS011;30157;55.512;37.764;2023-07-29T08:53:45;6.70;;;4.38;;
44197;SDS011;30157;55.512;37.764;2023-07-29T08:56:12;5.57;;;4.10;;
44197;SDS011;30157;55.512;37.764;2023-07-29T08:58:37;7.70;;;4.28;;
44197;SDS011;30157;55.512;37.764;2023-07-29T09:01:05;6.38;;;4.28;;
44197;SDS011;30157;55.512;37.764;2023-07-29T09:03:31;7.35;;;4.60;;
44197;SDS011;30157;55.512;37.764;2023-07-29T09:05:57;8.20;;;4.90;;
44197;SDS011;30157;55.512;37.764;2023-07-29T09:08:25;7.15;;;4.68;;
44197;SDS011;30157;55.512;37.764;2023-07-29T09:10:52;6.38;;;4.15;;
44197;SDS011;30157;55.512;37.764;2023-07-29T09:13:19;6.05;;;4.45;;
44197;SDS011;30157;55.512;37.764;2023-07-29T09:15:46;7.93;;;5.22;;
44197;SDS011;30157;55.512;37.764;2023-07-29T09:18:12;5.97;;;4.28;;
44197;SDS011;30157;55.512;37.764;2023-07-29T09:20:41;6.70;;;4.65;;
44197;SDS011;30157;55.512;37.764;2023-07-29T09:23:08;7.60;;;4.85;;
44197;SDS011;30157;55.512;37.764;2023-07-29T09:25:35;6.97;;;4.47;;
44197;SDS011;30157;55.512;37.764;2023-07-29T09:28:07;5.78;;;4.75;;
44197;SDS011;30157;55.512;37.764;2023-07-29T09:30:38;5.45;;;4.25;;
44197;SDS011;30157;55.512;37.764;2023-07-29T09:33:05;7.60;;;4.50;;
44197;SDS011;30157;55.512;37.764;2023-07-29T09:35:35;6.00;;;3.90;;
44197;SDS011;30157;55.512;37.764;2023-07-29T09:38:02;8.68;;;4.65;;
44197;SDS011;30157;55.512;37.764;2023-07-29T09:40:38;6.18;;;4.10;;
44197;SDS011;30157;55.512;37.764;2023-07-29T09:43:05;7.18;;;4.10;;
44197;SDS011;30157;55.512;37.764;2023-07-29T09:45:35;5.07;;;3.60;;
44197;SDS011;30157;55.512;37.764;2023-07-29T09:48:03;5.65;;;3.55;;
44197;SDS011;30157;55.512;37.764;2023-07-29T09:50:35;5.95;;;3.60;;
44197;SDS011;30157;55.512;37.764;2023-07-29T09:53:02;4.53;;;3.55;;
44197;SDS011;30157;55.512;37.764;2023-07-29T09:55:29;4.13;;;3.50;;
44197;SDS011;30157;55.512;37.764;2023-07-29T09:57:58;4.43;;;3.72;;
44197;SDS011;30157;55.512;37.764;2023-07-29T10:00:28;5.32;;;4.03;;
44197;SDS011;30157;55.512;37.764;2023-07-29T10:02:54;5.28;;;3.60;;
44197;SDS011;30157;55.512;37.764;2023-07-29T10:05:22;4.82;;;3.63;;
44197;SDS011;30157;55.512;37.764;2023-07-29T10:07:48;5.53;;;4.03;;
44197;SDS011;30157;55.512;37.764;2023-07-29T10:10:15;5.80;;;4.35;;
44197;SDS011;30157;55.512;37.764;2023-07-29T10:12:42;4.40;;;3.72;;
44197;SDS011;30157;55.512;37.764;2023-07-29T10:15:08;5.57;;;3.83;;
44197;SDS011;30157;55.512;37.764;2023-07-29T10:17:35;4.47;;;3.50;;
44197;SDS011;30157;55.512;37.764;2023-07-29T10:20:03;4.10;;;3.67;;
44197;SDS011;30157;55.512;37.764;2023-07-29T10:22:33;6.63;;;4.50;;
44197;SDS011;30157;55.512;37.764;2023-07-29T10:25:09;5.28;;;3.80;;
44197;SDS011;30157;55.512;37.764;2023-07-29T10:27:48;5.40;;;4.35;;
44197;SDS011;30157;55.512;37.764;2023-07-29T10:30:17;6.55;;;4.60;;
44197;SDS011;30157;55.512;37.764;2023-07-29T10:32:46;5.82;;;3.85;;
44197;SDS011;30157;55.512;37.764;2023-07-29T10:35:17;4.68;;;3.42;;
44197;SDS011;30157;55.512;37.764;2023-07-29T10:37:43;3.80;;;3.22;;
44197;SDS011;30157;55.512;37.764;2023-07-29T10:40:11;4.43;;;3.40;;
44197;SDS011;30157;55.512;37.764;2023-07-29T10:42:37;4.05;;;3.60;;
44197;SDS011;30157;55.512;37.764;2023-07-29T10:45:19;4.20;;;3.15;;
44197;SDS011;30157;55.512;37.764;2023-07-29T10:47:47;6.35;;;3.80;;
44197;SDS011;30157;55.512;37.764;2023-07-29T10:50:17;7.50;;;3.60;;
44197;SDS011;30157;55.512;37.764;2023-07-29T10:53:04;5.45;;;3.83;;
44197;SDS011;30157;55.512;37.764;2023-07-29T10:58:08;4.30;;;3.85;;
44197;SDS011;30157;55.512;37.764;2023-07-29T11:00:38;6.63;;;4.22;;
44197;SDS011;30157;55.512;37.764;2023-07-29T11:03:07;6.50;;;4.30;;
44197;SDS011;30157;55.512;37.764;2023-07-29T11:08:28;5.88;;;4.25;;
44197;SDS011;30157;55.512;37.764;2023-07-29T11:13:47;5.35;;;3.75;;
44197;SDS011;30157;55.512;37.764;2023-07-29T11:16:13;5.38;;;3.85;;
44197;SDS011;30157;55.512;37.764;2023-07-29T11:18:42;5.65;;;3.92;;
44197;SDS011;30157;55.512;37.764;2023-07-29T11:21:09;7.07;;;4.43;;
44197;SDS011;30157;55.512;37.764;2023-07-29T11:23:35;6.07;;;4.20;;
44197;SDS011;30157;55.512;37.764;2023-07-29T11:26:03;5.85;;;4.43;;
44197;SDS011;30157;55.512;37.764;2023-07-29T11:28:29;5.70;;;4.30;;
44197;SDS011;30157;55.512;37.764;2023-07-29T11:30:56;9.93;;;6.43;;
44197;SDS011;30157;55.512;37.764;2023-07-29T11:33:25;7.40;;;5.32;;
44197;SDS011;30157;55.512;37.764;2023-07-29T11:35:54;7.00;;;4.65;;
44197;SDS011;30157;55.512;37.764;2023-07-29T11:38:21;8.90;;;5.38;;
44197;SDS011;30157;55.512;37.764;2023-07-29T11:40:54;6.80;;;5.28;;
44197;SDS011;30157;55.512;37.764;2023-07-29T11:43:21;6.15;;;5.00;;
44197;SDS011;30157;55.512;37.764;2023-07-29T11:45:47;6.78;;;5.50;;
44197;SDS011;30157;55.512;37.764;2023-07-29T11:48:12;6.13;;;4.93;;
44197;SDS011;30157;55.512;37.764;2023-07-29T11:50:38;8.10;;;5.53;;
44197;SDS011;30157;55.512;37.764;2023-07-29T11:53:04;8.00;;;5.80;;
44197;SDS011;30157;55.512;37.764;2023-07-29T11:55:30;8.18;;;5.18;;
44197;SDS011;30157;55.512;37.764;2023-07-29T11:57:56;8.40;;;6.00;;
44197;SDS011;30157;55.512;37.764;2023-07-29T12:00:22;8.07;;;4.90;;
44197;SDS011;30157;55.512;37.764;2023-07-29T12:02:48;6.32;;;4.90;;
44197;SDS011;30157;55.512;37.764;2023-07-29T12:05:15;5.57;;;4.93;;
44197;SDS011;30157;55.512;37.764;2023-07-29T12:07:48;8.95;;;5.78;;
44197;SDS011;30157;55.512;37.764;2023-07-29T12:10:14;6.75;;;4.85;;
44197;SDS011;30157;55.512;37.764;2023-07-29T12:12:46;7.63;;;5.68;;
44197;SDS011;30157;55.512;37.764;2023-07-29T12:15:13;17.02;;;10.80;;
44197;SDS011;30157;55.512;37.764;2023-07-29T12:17:52;16.85;;;11.48;;
44197;SDS011;30157;55.512;37.764;2023-07-29T12:20:19;15.68;;;11.77;;
44197;SDS011;30157;55.512;37.764;2023-07-29T12:22:50;19.05;;;12.77;;
44197;SDS011;30157;55.512;37.764;2023-07-29T12:25:17;12.45;;;8.98;;
44197;SDS011;30157;55.512;37.764;2023-07-29T12:27:46;13.95;;;9.45;;
44197;SDS011;30157;55.512;37.764;2023-07-29T12:30:20;14.02;;;10.18;;
44197;SDS011;30157;55.512;37.764;2023-07-29T12:32:47;9.25;;;7.07;;
44197;SDS011;30157;55.512;37.764;2023-07-29T12:35:13;12.38;;;7.43;;
44197;SDS011;30157;55.512;37.764;2023-07-29T12:37:41;9.95;;;7.28;;
44197;SDS011;30157;55.512;37.764;2023-07-29T12:40:26;16.10;;;11.70;;
44197;SDS011;30157;55.512;37.764;2023-07-29T12:42:53;13.27;;;10.82;;
44197;SDS011;30157;55.512;37.764;2023-07-29T12:45:21;10.23;;;8.30;;
44197;SDS011;30157;55.512;37.764;2023-07-29T12:47:51;9.48;;;7.75;;
44197;SDS011;30157;55.512;37.764;2023-07-29T12:50:17;13.38;;;10.93;;
44197;SDS011;30157;55.512;37.764;2023-07-29T12:52:43;10.02;;;7.93;;
44197;SDS011;30157;55.512;37.764;2023-07-29T12:55:09;14.73;;;10.20;;
44197;SDS011;30157;55.512;37.764;2023-07-29T12:57:39;28.95;;;21.75;;
44197;SDS011;30157;55.512;37.764;2023-07-29T13:00:07;33.28;;;24.63;;
44197;SDS011;30157;55.512;37.764;2023-07-29T13:02:36;21.33;;;16.33;;
44197;SDS011;30157;55.512;37.764;2023-07-29T13:05:05;26.50;;;21.65;;
44197;SDS011;30157;55.512;37.764;2023-07-29T13:07:31;17.90;;;15.07;;
44197;SDS011;30157;55.512;37.764;2023-07-29T13:09:57;15.95;;;14.25;;
44197;SDS011;30157;55.512;37.764;2023-07-29T13:12:22;12.20;;;8.90;;
44197;SDS011;30157;55.512;37.764;2023-07-29T13:14:48;95.68;;;48.53;;
44197;SDS011;30157;55.512;37.764;2023-07-29T13:17:14;93.57;;;50.67;;
44197;SDS011;30157;55.512;37.764;2023-07-29T13:19:40;101.15;;;60.42;;
44197;SDS011;30157;55.512;37.764;2023-07-29T13:22:06;51.50;;;35.33;;
44197;SDS011;30157;55.512;37.764;2023-07-29T13:24:31;23.73;;;17.20;;
44197;SDS011;30157;55.512;37.764;2023-07-29T13:26:58;11.13;;;8.23;;
44197;SDS011;30157;55.512;37.764;2023-07-29T13:29:23;11.18;;;8.35;;
44197;SDS011;30157;55.512;37.764;2023-07-29T13:31:49;36.22;;;30.02;;
44197;SDS011;30157;55.512;37.764;2023-07-29T13:34:15;13.25;;;11.05;;
44197;SDS011;30157;55.512;37.764;2023-07-29T13:36:40;8.55;;;6.70;;
44197;SDS011;30157;55.512;37.764;2023-07-29T13:39:06;10.05;;;6.80;;
44197;SDS011;30157;55.512;37.764;2023-07-29T13:41:32;8.27;;;6.63;;
44197;SDS011;30157;55.512;37.764;2023-07-29T13:43:58;8.45;;;6.25;;
44197;SDS011;30157;55.512;37.764;2023-07-29T13:46:24;8.23;;;6.70;;
44197;SDS011;30157;55.512;37.764;2023-07-29T13:48:49;8.30;;;5.80;;
44197;SDS011;30157;55.512;37.764;2023-07-29T13:51:15;7.10;;;5.55;;
44197;SDS011;30157;55.512;37.764;2023-07-29T13:53:41;9.20;;;6.07;;
44197;SDS011;30157;55.512;37.764;2023-07-29T13:56:09;9.30;;;7.13;;
44197;SDS011;30157;55.512;37.764;2023-07-29T13:58:35;9.85;;;6.60;;
44197;SDS011;30157;55.512;37.764;2023-07-29T14:01:01;9.05;;;6.32;;
44197;SDS011;30157;55.512;37.764;2023-07-29T14:03:27;9.77;;;6.88;;
44197;SDS011;30157;55.512;37.764;2023-07-29T14:05:53;9.07;;;6.95;;
44197;SDS011;30157;55.512;37.764;2023-07-29T14:08:19;9.55;;;6.43;;
44197;SDS011;30157;55.512;37.764;2023-07-29T14:10:45;9.68;;;5.97;;
44197;SDS011;30157;55.512;37.764;2023-07-29T14:13:10;8.55;;;6.30;;
44197;SDS011;30157;55.512;37.764;2023-07-29T14:15:37;9.02;;;6.35;;
44197;SDS011;30157;55.512;37.764;2023-07-29T14:18:02;8.15;;;6.00;;
44197;SDS011;30157;55.512;37.764;2023-07-29T14:20:28;7.75;;;6.28;;
44197;SDS011;30157;55.512;37.764;2023-07-29T14:22:54;8.18;;;5.70;;
44197;SDS011;30157;55.512;37.764;2023-07-29T14:25:20;6.35;;;5.40;;
44197;SDS011;30157;55.512;37.764;2023-07-29T14:27:46;9.52;;;6.40;;
44197;SDS011;30157;55.512;37.764;2023-07-29T14:30:12;7.22;;;5.70;;
44197;SDS011;30157;55.512;37.764;2023-07-29T14:32:38;6.93;;;5.15;;
44197;SDS011;30157;55.512;37.764;2023-07-29T14:35:04;5.32;;;4.68;;
44197;SDS011;30157;55.512;37.764;2023-07-29T14:37:31;10.68;;;6.10;;
44197;SDS011;30157;55.512;37.764;2023-07-29T14:39:57;7.28;;;5.40;;
44197;SDS011;30157;55.512;37.764;2023-07-29T14:42:23;6.55;;;5.25;;
44197;SDS011;30157;55.512;37.764;2023-07-29T14:44:49;7.88;;;5.60;;
44197;SDS011;30157;55.512;37.764;2023-07-29T14:47:15;6.80;;;5.00;;
44197;SDS011;30157;55.512;37.764;2023-07-29T14:49:41;6.10;;;4.60;;
44197;SDS011;30157;55.512;37.764;2023-07-29T14:52:07;7.85;;;5.05;;